sensor_id;sensor_type;location;lat;lon;timestamp;P1;durP1;ratioP1;P2;durP2;ratioP2
19374;SDS011;9823;50.936;4.046;2023-05-07T00:02:00;13.57;;;6.27;;
19374;SDS011;9823;50.936;4.046;2023-05-07T00:04:27;11.27;;;6.10;;
19374;SDS011;9823;50.936;4.046;2023-05-07T00:06:54;17.80;;;6.20;;
19374;SDS011;9823;50.936;4.046;2023-05-07T00:09:20;11.67;;;6.30;;
19374;SDS011;9823;50.936;4.046;2023-05-07T00:11:46;16.33;;;6.63;;
19374;SDS011;9823;50.936;4.046;2023-05-07T00:14:12;12.23;;;5.97;;
19374;SDS011;9823;50.936;4.046;2023-05-07T00:16:38;12.80;;;5.63;;
19374;SDS011;9823;50.936;4.046;2023-05-07T00:19:04;12.57;;;5.90;;
19374;SDS011;9823;50.936;4.046;2023-05-07T00:21:30;13.20;;;5.90;;
19374;SDS011;9823;50.936;4.046;2023-05-07T00:24:03;16.53;;;6.57;;
19374;SDS011;9823;50.936;4.046;2023-05-07T00:26:29;16.93;;;6.07;;
19374;SDS011;9823;50.936;4.046;2023-05-07T00:28:55;13.43;;;5.90;;
19374;SDS011;9823;50.936;4.046;2023-05-07T00:31:23;17.47;;;5.90;;
19374;SDS011;9823;50.936;4.046;2023-05-07T00:33:52;13.70;;;5.47;;
19374;SDS011;9823;50.936;4.046;2023-05-07T00:36:18;16.83;;;5.97;;
19374;SDS011;9823;50.936;4.046;2023-05-07T00:38:44;16.60;;;5.90;;
19374;SDS011;9823;50.936;4.046;2023-05-07T00:41:10;15.53;;;5.90;;
19374;SDS011;9823;50.936;4.046;2023-05-07T00:43:38;14.77;;;6.00;;
19374;SDS011;9823;50.936;4.046;2023-05-07T00:46:04;12.90;;;5.43;;
19374;SDS011;9823;50.936;4.046;2023-05-07T00:48:37;11.60;;;5.63;;
19374;SDS011;9823;50.936;4.046;2023-05-07T00:51:03;18.07;;;5.80;;
19374;SDS011;9823;50.936;4.046;2023-05-07T00:53:30;12.23;;;5.37;;
19374;SDS011;9823;50.936;4.046;2023-05-07T00:55:56;17.73;;;6.00;;
19374;SDS011;9823;50.936;4.046;2023-05-07T00:58:24;15.67;;;5.80;;
19374;SDS011;9823;50.936;4.046;2023-05-07T01:00:53;11.10;;;5.27;;
19374;SDS011;9823;50.936;4.046;2023-05-07T01:03:19;16.17;;;5.63;;
19374;SDS011;9823;50.936;4.046;2023-05-07T01:05:46;12.07;;;5.67;;
19374;SDS011;9823;50.936;4.046;2023-05-07T01:08:13;14.43;;;5.87;;
19374;SDS011;9823;50.936;4.046;2023-05-07T01:10:40;15.60;;;6.07;;
19374;SDS011;9823;50.936;4.046;2023-05-07T01:13:10;14.20;;;5.90;;
19374;SDS011;9823;50.936;4.046;2023-05-07T01:15:36;18.47;;;6.67;;
19374;SDS011;9823;50.936;4.046;2023-05-07T01:18:03;13.17;;;5.43;;
19374;SDS011;9823;50.936;4.046;2023-05-07T01:20:36;14.10;;;6.27;;
19374;SDS011;9823;50.936;4.046;2023-05-07T01:23:02;18.83;;;5.93;;
19374;SDS011;9823;50.936;4.046;2023-05-07T01:25:28;16.50;;;5.73;;
19374;SDS011;9823;50.936;4.046;2023-05-07T01:27:57;11.50;;;6.03;;
19374;SDS011;9823;50.936;4.046;2023-05-07T01:30:26;12.57;;;5.93;;
19374;SDS011;9823;50.936;4.046;2023-05-07T01:32:56;14.20;;;5.93;;
19374;SDS011;9823;50.936;4.046;2023-05-07T01:35:37;18.57;;;5.90;;
19374;SDS011;9823;50.936;4.046;2023-05-07T01:38:04;12.73;;;5.77;;
19374;SDS011;9823;50.936;4.046;2023-05-07T01:40:31;13.13;;;6.00;;
19374;SDS011;9823;50.936;4.046;2023-05-07T01:42:57;11.73;;;5.73;;
19374;SDS011;9823;50.936;4.046;2023-05-07T01:45:23;12.00;;;5.73;;
19374;SDS011;9823;50.936;4.046;2023-05-07T01:47:50;12.87;;;6.03;;
19374;SDS011;9823;50.936;4.046;2023-05-07T01:50:19;15.00;;;6.03;;
19374;SDS011;9823;50.936;4.046;2023-05-07T01:52:46;17.80;;;5.83;;
19374;SDS011;9823;50.936;4.046;2023-05-07T01:55:12;13.97;;;6.40;;
19374;SDS011;9823;50.936;4.046;2023-05-07T01:57:38;14.53;;;6.73;;
19374;SDS011;9823;50.936;4.046;2023-05-07T02:00:07;17.40;;;6.67;;
19374;SDS011;9823;50.936;4.046;2023-05-07T02:02:34;15.07;;;6.33;;
19374;SDS011;9823;50.936;4.046;2023-05-07T02:05:00;15.73;;;6.97;;
19374;SDS011;9823;50.936;4.046;2023-05-07T02:07:26;15.77;;;6.77;;
19374;SDS011;9823;50.936;4.046;2023-05-07T02:09:52;16.90;;;6.63;;
19374;SDS011;9823;50.936;4.046;2023-05-07T02:12:20;19.00;;;6.90;;
19374;SDS011;9823;50.936;4.046;2023-05-07T02:14:46;16.33;;;6.13;;
19374;SDS011;9823;50.936;4.046;2023-05-07T02:17:14;15.90;;;6.27;;
19374;SDS011;9823;50.936;4.046;2023-05-07T02:19:43;17.50;;;6.70;;
19374;SDS011;9823;50.936;4.046;2023-05-07T02:22:09;18.57;;;6.97;;
19374;SDS011;9823;50.936;4.046;2023-05-07T02:24:35;13.93;;;6.50;;
19374;SDS011;9823;50.936;4.046;2023-05-07T02:27:01;17.80;;;6.63;;
19374;SDS011;9823;50.936;4.046;2023-05-07T02:29:28;18.87;;;7.23;;
19374;SDS011;9823;50.936;4.046;2023-05-07T02:31:54;15.87;;;7.30;;
19374;SDS011;9823;50.936;4.046;2023-05-07T02:34:20;10.93;;;6.50;;
19374;SDS011;9823;50.936;4.046;2023-05-07T02:36:46;11.47;;;6.20;;
19374;SDS011;9823;50.936;4.046;2023-05-07T02:39:15;16.10;;;6.73;;
19374;SDS011;9823;50.936;4.046;2023-05-07T02:41:43;16.57;;;7.00;;
19374;SDS011;9823;50.936;4.046;2023-05-07T02:44:09;18.50;;;6.93;;
19374;SDS011;9823;50.936;4.046;2023-05-07T02:46:37;8.37;;;5.80;;
19374;SDS011;9823;50.936;4.046;2023-05-07T02:49:03;14.37;;;6.57;;
19374;SDS011;9823;50.936;4.046;2023-05-07T02:51:30;11.37;;;6.37;;
19374;SDS011;9823;50.936;4.046;2023-05-07T02:53:56;13.57;;;6.07;;
19374;SDS011;9823;50.936;4.046;2023-05-07T02:56:22;12.80;;;6.03;;
19374;SDS011;9823;50.936;4.046;2023-05-07T02:58:48;15.23;;;6.53;;
19374;SDS011;9823;50.936;4.046;2023-05-07T03:01:14;11.93;;;6.20;;
19374;SDS011;9823;50.936;4.046;2023-05-07T03:03:40;13.47;;;6.47;;
19374;SDS011;9823;50.936;4.046;2023-05-07T03:06:06;13.63;;;6.40;;
19374;SDS011;9823;50.936;4.046;2023-05-07T03:08:32;16.10;;;6.27;;
19374;SDS011;9823;50.936;4.046;2023-05-07T03:10:58;9.70;;;5.93;;
19374;SDS011;9823;50.936;4.046;2023-05-07T03:13:24;13.63;;;6.80;;
19374;SDS011;9823;50.936;4.046;2023-05-07T03:15:53;13.07;;;6.27;;
19374;SDS011;9823;50.936;4.046;2023-05-07T03:18:19;11.67;;;6.20;;
19374;SDS011;9823;50.936;4.046;2023-05-07T03:20:45;14.87;;;6.17;;
19374;SDS011;9823;50.936;4.046;2023-05-07T03:23:11;15.20;;;6.80;;
19374;SDS011;9823;50.936;4.046;2023-05-07T03:25:43;13.20;;;6.80;;
19374;SDS011;9823;50.936;4.046;2023-05-07T03:28:09;15.77;;;6.60;;
19374;SDS011;9823;50.936;4.046;2023-05-07T03:30:37;15.27;;;7.03;;
19374;SDS011;9823;50.936;4.046;2023-05-07T03:33:05;16.97;;;7.43;;
19374;SDS011;9823;50.936;4.046;2023-05-07T03:35:34;14.27;;;6.83;;
19374;SDS011;9823;50.936;4.046;2023-05-07T03:38:00;14.50;;;7.20;;
19374;SDS011;9823;50.936;4.046;2023-05-07T03:40:26;13.70;;;7.30;;
19374;SDS011;9823;50.936;4.046;2023-05-07T03:42:54;15.63;;;6.70;;
19374;SDS011;9823;50.936;4.046;2023-05-07T03:45:20;17.67;;;6.63;;
19374;SDS011;9823;50.936;4.046;2023-05-07T03:47:48;11.47;;;6.77;;
19374;SDS011;9823;50.936;4.046;2023-05-07T03:50:14;13.53;;;7.10;;
19374;SDS011;9823;50.936;4.046;2023-05-07T03:52:40;13.80;;;7.20;;
19374;SDS011;9823;50.936;4.046;2023-05-07T03:55:07;18.30;;;7.03;;
19374;SDS011;9823;50.936;4.046;2023-05-07T03:57:37;14.90;;;7.47;;
19374;SDS011;9823;50.936;4.046;2023-05-07T04:00:04;17.70;;;7.27;;
19374;SDS011;9823;50.936;4.046;2023-05-07T04:02:31;19.27;;;7.80;;
19374;SDS011;9823;50.936;4.046;2023-05-07T04:04:58;15.50;;;6.93;;
19374;SDS011;9823;50.936;4.046;2023-05-07T04:07:24;13.23;;;7.00;;
19374;SDS011;9823;50.936;4.046;2023-05-07T04:09:52;14.60;;;7.17;;
19374;SDS011;9823;50.936;4.046;2023-05-07T04:12:21;16.07;;;7.33;;
19374;SDS011;9823;50.936;4.046;2023-05-07T04:14:49;13.27;;;6.63;;
19374;SDS011;9823;50.936;4.046;2023-05-07T04:17:15;20.47;;;7.57;;
19374;SDS011;9823;50.936;4.046;2023-05-07T04:19:41;12.60;;;6.67;;
19374;SDS011;9823;50.936;4.046;2023-05-07T04:22:10;16.53;;;7.23;;
19374;SDS011;9823;50.936;4.046;2023-05-07T04:24:37;18.30;;;7.33;;
19374;SDS011;9823;50.936;4.046;2023-05-07T04:27:05;14.33;;;7.17;;
19374;SDS011;9823;50.936;4.046;2023-05-07T04:29:31;20.73;;;7.57;;
19374;SDS011;9823;50.936;4.046;2023-05-07T04:32:00;17.67;;;7.00;;
19374;SDS011;9823;50.936;4.046;2023-05-07T04:34:26;17.37;;;7.70;;
19374;SDS011;9823;50.936;4.046;2023-05-07T04:36:58;20.33;;;8.57;;
19374;SDS011;9823;50.936;4.046;2023-05-07T04:39:24;15.30;;;8.43;;
19374;SDS011;9823;50.936;4.046;2023-05-07T04:41:55;20.57;;;8.03;;
19374;SDS011;9823;50.936;4.046;2023-05-07T04:44:23;15.83;;;8.43;;
19374;SDS011;9823;50.936;4.046;2023-05-07T04:46:52;17.17;;;8.90;;
19374;SDS011;9823;50.936;4.046;2023-05-07T04:49:18;18.13;;;9.90;;
19374;SDS011;9823;50.936;4.046;2023-05-07T04:51:44;17.73;;;10.90;;
19374;SDS011;9823;50.936;4.046;2023-05-07T04:54:13;20.17;;;11.13;;
19374;SDS011;9823;50.936;4.046;2023-05-07T04:56:39;20.50;;;10.20;;
19374;SDS011;9823;50.936;4.046;2023-05-07T04:59:07;16.77;;;9.67;;
19374;SDS011;9823;50.936;4.046;2023-05-07T05:01:33;18.17;;;9.27;;
19374;SDS011;9823;50.936;4.046;2023-05-07T05:03:59;17.30;;;8.80;;
19374;SDS011;9823;50.936;4.046;2023-05-07T05:06:25;17.37;;;9.27;;
19374;SDS011;9823;50.936;4.046;2023-05-07T05:08:51;18.43;;;8.80;;
19374;SDS011;9823;50.936;4.046;2023-05-07T05:11:17;16.53;;;7.77;;
19374;SDS011;9823;50.936;4.046;2023-05-07T05:13:46;16.57;;;7.37;;
19374;SDS011;9823;50.936;4.046;2023-05-07T05:16:17;20.23;;;8.70;;
19374;SDS011;9823;50.936;4.046;2023-05-07T05:18:45;13.93;;;7.97;;
19374;SDS011;9823;50.936;4.046;2023-05-07T05:21:11;19.27;;;7.87;;
19374;SDS011;9823;50.936;4.046;2023-05-07T05:23:37;15.23;;;7.37;;
19374;SDS011;9823;50.936;4.046;2023-05-07T05:26:04;21.40;;;7.80;;
19374;SDS011;9823;50.936;4.046;2023-05-07T05:28:30;19.50;;;7.07;;
19374;SDS011;9823;50.936;4.046;2023-05-07T05:30:56;18.10;;;7.50;;
19374;SDS011;9823;50.936;4.046;2023-05-07T05:33:22;17.07;;;7.37;;
19374;SDS011;9823;50.936;4.046;2023-05-07T05:35:49;16.40;;;7.20;;
19374;SDS011;9823;50.936;4.046;2023-05-07T05:38:15;16.00;;;7.37;;
19374;SDS011;9823;50.936;4.046;2023-05-07T05:40:41;15.97;;;7.67;;
19374;SDS011;9823;50.936;4.046;2023-05-07T05:43:07;16.03;;;7.50;;
19374;SDS011;9823;50.936;4.046;2023-05-07T05:45:33;17.33;;;7.77;;
19374;SDS011;9823;50.936;4.046;2023-05-07T05:48:00;18.13;;;7.93;;
19374;SDS011;9823;50.936;4.046;2023-05-07T05:50:26;17.33;;;7.63;;
19374;SDS011;9823;50.936;4.046;2023-05-07T05:52:52;15.17;;;8.10;;
19374;SDS011;9823;50.936;4.046;2023-05-07T05:55:18;13.83;;;7.47;;
19374;SDS011;9823;50.936;4.046;2023-05-07T05:57:44;13.97;;;7.10;;
19374;SDS011;9823;50.936;4.046;2023-05-07T06:00:13;13.80;;;6.53;;
19374;SDS011;9823;50.936;4.046;2023-05-07T06:02:39;16.93;;;7.23;;
19374;SDS011;9823;50.936;4.046;2023-05-07T06:05:05;13.60;;;7.20;;
19374;SDS011;9823;50.936;4.046;2023-05-07T06:07:31;19.97;;;7.50;;
19374;SDS011;9823;50.936;4.046;2023-05-07T06:09:58;16.53;;;7.10;;
19374;SDS011;9823;50.936;4.046;2023-05-07T06:12:24;14.70;;;7.27;;
19374;SDS011;9823;50.936;4.046;2023-05-07T06:14:49;14.70;;;7.07;;
19374;SDS011;9823;50.936;4.046;2023-05-07T06:17:22;15.13;;;6.80;;
19374;SDS011;9823;50.936;4.046;2023-05-07T06:19:48;16.70;;;7.47;;
19374;SDS011;9823;50.936;4.046;2023-05-07T06:22:14;13.57;;;6.43;;
19374;SDS011;9823;50.936;4.046;2023-05-07T06:24:40;13.37;;;6.50;;
19374;SDS011;9823;50.936;4.046;2023-05-07T06:27:06;16.60;;;6.87;;
19374;SDS011;9823;50.936;4.046;2023-05-07T06:29:32;14.40;;;6.63;;
19374;SDS011;9823;50.936;4.046;2023-05-07T06:32:12;20.10;;;7.00;;
19374;SDS011;9823;50.936;4.046;2023-05-07T06:34:38;13.70;;;6.77;;
19374;SDS011;9823;50.936;4.046;2023-05-07T06:37:04;16.07;;;6.70;;
19374;SDS011;9823;50.936;4.046;2023-05-07T06:39:30;13.83;;;6.83;;
19374;SDS011;9823;50.936;4.046;2023-05-07T06:41:56;14.87;;;6.37;;
19374;SDS011;9823;50.936;4.046;2023-05-07T06:44:23;13.33;;;6.33;;
19374;SDS011;9823;50.936;4.046;2023-05-07T06:46:49;12.53;;;5.87;;
19374;SDS011;9823;50.936;4.046;2023-05-07T06:49:15;12.83;;;5.57;;
19374;SDS011;9823;50.936;4.046;2023-05-07T06:51:41;14.97;;;5.47;;
19374;SDS011;9823;50.936;4.046;2023-05-07T06:54:07;10.73;;;4.63;;
19374;SDS011;9823;50.936;4.046;2023-05-07T06:56:33;12.13;;;5.37;;
19374;SDS011;9823;50.936;4.046;2023-05-07T06:59:01;17.93;;;5.50;;
19374;SDS011;9823;50.936;4.046;2023-05-07T07:01:30;12.00;;;4.93;;
19374;SDS011;9823;50.936;4.046;2023-05-07T07:03:56;11.50;;;5.27;;
19374;SDS011;9823;50.936;4.046;2023-05-07T07:06:22;13.17;;;6.07;;
19374;SDS011;9823;50.936;4.046;2023-05-07T07:08:48;10.53;;;5.03;;
19374;SDS011;9823;50.936;4.046;2023-05-07T07:11:15;11.60;;;5.10;;
19374;SDS011;9823;50.936;4.046;2023-05-07T07:13:41;9.90;;;5.20;;
19374;SDS011;9823;50.936;4.046;2023-05-07T07:16:08;12.23;;;5.03;;
19374;SDS011;9823;50.936;4.046;2023-05-07T07:18:36;13.50;;;5.47;;
19374;SDS011;9823;50.936;4.046;2023-05-07T07:21:02;10.70;;;4.90;;
19374;SDS011;9823;50.936;4.046;2023-05-07T07:23:28;12.40;;;5.40;;
19374;SDS011;9823;50.936;4.046;2023-05-07T07:25:54;13.00;;;5.27;;
19374;SDS011;9823;50.936;4.046;2023-05-07T07:28:21;16.40;;;5.03;;
19374;SDS011;9823;50.936;4.046;2023-05-07T07:30:47;14.97;;;5.50;;
19374;SDS011;9823;50.936;4.046;2023-05-07T07:33:13;11.63;;;4.87;;
19374;SDS011;9823;50.936;4.046;2023-05-07T07:35:39;16.10;;;5.97;;
19374;SDS011;9823;50.936;4.046;2023-05-07T07:38:05;10.07;;;4.67;;
19374;SDS011;9823;50.936;4.046;2023-05-07T07:40:31;9.80;;;4.57;;
19374;SDS011;9823;50.936;4.046;2023-05-07T07:42:57;11.07;;;5.07;;
19374;SDS011;9823;50.936;4.046;2023-05-07T07:45:26;9.10;;;4.97;;
19374;SDS011;9823;50.936;4.046;2023-05-07T07:47:52;10.13;;;5.80;;
19374;SDS011;9823;50.936;4.046;2023-05-07T07:50:18;12.13;;;5.33;;
19374;SDS011;9823;50.936;4.046;2023-05-07T07:52:44;11.00;;;4.87;;
19374;SDS011;9823;50.936;4.046;2023-05-07T07:55:11;11.80;;;5.17;;
19374;SDS011;9823;50.936;4.046;2023-05-07T07:57:37;10.77;;;4.97;;
19374;SDS011;9823;50.936;4.046;2023-05-07T08:00:03;16.53;;;5.60;;
19374;SDS011;9823;50.936;4.046;2023-05-07T08:02:31;11.33;;;5.37;;
19374;SDS011;9823;50.936;4.046;2023-05-07T08:04:57;9.50;;;4.87;;
19374;SDS011;9823;50.936;4.046;2023-05-07T08:07:23;15.93;;;5.80;;
19374;SDS011;9823;50.936;4.046;2023-05-07T08:09:49;9.43;;;5.20;;
19374;SDS011;9823;50.936;4.046;2023-05-07T08:12:15;11.23;;;5.10;;
19374;SDS011;9823;50.936;4.046;2023-05-07T08:14:44;13.00;;;5.73;;
19374;SDS011;9823;50.936;4.046;2023-05-07T08:17:12;12.83;;;5.20;;
19374;SDS011;9823;50.936;4.046;2023-05-07T08:19:40;10.77;;;5.87;;
19374;SDS011;9823;50.936;4.046;2023-05-07T08:22:13;11.13;;;5.20;;
19374;SDS011;9823;50.936;4.046;2023-05-07T08:24:47;9.67;;;5.47;;
19374;SDS011;9823;50.936;4.046;2023-05-07T08:27:13;13.40;;;6.13;;
19374;SDS011;9823;50.936;4.046;2023-05-07T08:29:39;17.13;;;6.53;;
19374;SDS011;9823;50.936;4.046;2023-05-07T08:32:12;13.67;;;6.07;;
19374;SDS011;9823;50.936;4.046;2023-05-07T08:34:38;13.90;;;6.20;;
19374;SDS011;9823;50.936;4.046;2023-05-07T08:37:04;12.30;;;5.70;;
19374;SDS011;9823;50.936;4.046;2023-05-07T08:39:30;13.40;;;5.70;;
19374;SDS011;9823;50.936;4.046;2023-05-07T08:41:59;11.57;;;5.73;;
19374;SDS011;9823;50.936;4.046;2023-05-07T08:44:30;11.23;;;5.50;;
19374;SDS011;9823;50.936;4.046;2023-05-07T08:46:58;13.23;;;6.00;;
19374;SDS011;9823;50.936;4.046;2023-05-07T08:49:27;14.87;;;7.30;;
19374;SDS011;9823;50.936;4.046;2023-05-07T08:51:53;16.07;;;6.93;;
19374;SDS011;9823;50.936;4.046;2023-05-07T08:54:20;15.57;;;7.50;;
19374;SDS011;9823;50.936;4.046;2023-05-07T08:56:47;12.93;;;5.70;;
19374;SDS011;9823;50.936;4.046;2023-05-07T08:59:13;13.83;;;6.27;;
19374;SDS011;9823;50.936;4.046;2023-05-07T09:01:39;11.67;;;6.20;;
19374;SDS011;9823;50.936;4.046;2023-05-07T09:04:05;14.97;;;8.17;;
19374;SDS011;9823;50.936;4.046;2023-05-07T09:06:32;15.10;;;6.70;;
19374;SDS011;9823;50.936;4.046;2023-05-07T09:08:58;11.60;;;6.40;;
19374;SDS011;9823;50.936;4.046;2023-05-07T09:11:26;14.03;;;6.63;;
19374;SDS011;9823;50.936;4.046;2023-05-07T09:13:55;12.00;;;7.00;;
19374;SDS011;9823;50.936;4.046;2023-05-07T09:16:21;15.57;;;7.37;;
19374;SDS011;9823;50.936;4.046;2023-05-07T09:18:48;12.60;;;7.27;;
19374;SDS011;9823;50.936;4.046;2023-05-07T09:21:17;16.80;;;7.10;;
19374;SDS011;9823;50.936;4.046;2023-05-07T09:23:43;13.67;;;7.67;;
19374;SDS011;9823;50.936;4.046;2023-05-07T09:26:15;14.53;;;7.40;;
19374;SDS011;9823;50.936;4.046;2023-05-07T09:28:41;12.37;;;7.37;;
19374;SDS011;9823;50.936;4.046;2023-05-07T09:31:08;12.47;;;6.97;;
19374;SDS011;9823;50.936;4.046;2023-05-07T09:33:34;13.00;;;6.27;;
19374;SDS011;9823;50.936;4.046;2023-05-07T09:36:03;12.57;;;6.53;;
19374;SDS011;9823;50.936;4.046;2023-05-07T09:38:32;14.63;;;6.07;;
19374;SDS011;9823;50.936;4.046;2023-05-07T09:41:05;9.53;;;5.40;;
19374;SDS011;9823;50.936;4.046;2023-05-07T09:43:34;10.40;;;5.00;;
19374;SDS011;9823;50.936;4.046;2023-05-07T09:46:07;9.87;;;4.73;;
19374;SDS011;9823;50.936;4.046;2023-05-07T09:48:37;9.23;;;4.60;;
19374;SDS011;9823;50.936;4.046;2023-05-07T09:51:04;6.77;;;4.30;;
19374;SDS011;9823;50.936;4.046;2023-05-07T09:53:33;7.83;;;4.10;;
19374;SDS011;9823;50.936;4.046;2023-05-07T09:55:59;9.10;;;4.43;;
19374;SDS011;9823;50.936;4.046;2023-05-07T09:58:25;8.43;;;4.77;;
19374;SDS011;9823;50.936;4.046;2023-05-07T10:00:52;10.77;;;5.33;;
19374;SDS011;9823;50.936;4.046;2023-05-07T10:03:18;7.67;;;4.00;;
19374;SDS011;9823;50.936;4.046;2023-05-07T10:05:46;8.83;;;3.43;;
19374;SDS011;9823;50.936;4.046;2023-05-07T10:08:12;8.73;;;3.60;;
19374;SDS011;9823;50.936;4.046;2023-05-07T10:10:39;6.73;;;3.53;;
19374;SDS011;9823;50.936;4.046;2023-05-07T10:13:06;7.60;;;4.30;;
19374;SDS011;9823;50.936;4.046;2023-05-07T10:15:35;9.43;;;4.27;;
19374;SDS011;9823;50.936;4.046;2023-05-07T10:18:03;7.23;;;4.17;;
19374;SDS011;9823;50.936;4.046;2023-05-07T10:20:29;8.27;;;4.23;;
19374;SDS011;9823;50.936;4.046;2023-05-07T10:22:55;6.23;;;4.10;;
19374;SDS011;9823;50.936;4.046;2023-05-07T10:25:25;8.20;;;4.53;;
19374;SDS011;9823;50.936;4.046;2023-05-07T10:27:55;10.40;;;4.57;;
19374;SDS011;9823;50.936;4.046;2023-05-07T10:33:01;10.67;;;5.40;;
19374;SDS011;9823;50.936;4.046;2023-05-07T10:35:31;13.23;;;5.90;;
19374;SDS011;9823;50.936;4.046;2023-05-07T10:37:57;9.90;;;5.30;;
19374;SDS011;9823;50.936;4.046;2023-05-07T10:40:24;10.17;;;6.23;;
19374;SDS011;9823;50.936;4.046;2023-05-07T10:42:55;10.63;;;6.33;;
19374;SDS011;9823;50.936;4.046;2023-05-07T10:45:21;11.97;;;6.30;;
19374;SDS011;9823;50.936;4.046;2023-05-07T10:48:05;12.53;;;6.30;;
19374;SDS011;9823;50.936;4.046;2023-05-07T10:50:34;7.63;;;6.07;;
19374;SDS011;9823;50.936;4.046;2023-05-07T10:55:46;10.53;;;5.60;;
19374;SDS011;9823;50.936;4.046;2023-05-07T11:00:48;9.40;;;5.70;;
19374;SDS011;9823;50.936;4.046;2023-05-07T11:03:14;10.50;;;7.10;;
19374;SDS011;9823;50.936;4.046;2023-05-07T11:05:43;10.70;;;6.67;;
19374;SDS011;9823;50.936;4.046;2023-05-07T11:08:11;11.53;;;7.27;;
19374;SDS011;9823;50.936;4.046;2023-05-07T11:10:52;12.17;;;6.50;;
19374;SDS011;9823;50.936;4.046;2023-05-07T11:13:40;7.73;;;5.73;;
19374;SDS011;9823;50.936;4.046;2023-05-07T11:16:05;9.07;;;6.37;;
19374;SDS011;9823;50.936;4.046;2023-05-07T11:18:45;9.07;;;5.60;;
19374;SDS011;9823;50.936;4.046;2023-05-07T11:21:12;8.10;;;5.63;;
19374;SDS011;9823;50.936;4.046;2023-05-07T11:26:07;6.87;;;4.97;;
19374;SDS011;9823;50.936;4.046;2023-05-07T11:28:36;8.37;;;4.80;;
19374;SDS011;9823;50.936;4.046;2023-05-07T11:31:03;7.03;;;4.80;;
19374;SDS011;9823;50.936;4.046;2023-05-07T11:33:32;8.23;;;5.13;;
19374;SDS011;9823;50.936;4.046;2023-05-07T11:35:59;6.37;;;4.30;;
19374;SDS011;9823;50.936;4.046;2023-05-07T11:38:25;6.33;;;3.77;;
19374;SDS011;9823;50.936;4.046;2023-05-07T11:40:52;7.63;;;4.00;;
19374;SDS011;9823;50.936;4.046;2023-05-07T11:43:18;6.07;;;4.00;;
19374;SDS011;9823;50.936;4.046;2023-05-07T11:45:45;8.40;;;4.60;;
19374;SDS011;9823;50.936;4.046;2023-05-07T11:48:12;5.53;;;4.17;;
19374;SDS011;9823;50.936;4.046;2023-05-07T11:51:00;7.70;;;5.13;;
19374;SDS011;9823;50.936;4.046;2023-05-07T11:53:25;4.90;;;4.07;;
19374;SDS011;9823;50.936;4.046;2023-05-07T11:55:57;6.20;;;4.37;;
19374;SDS011;9823;50.936;4.046;2023-05-07T11:58:24;5.83;;;3.63;;
19374;SDS011;9823;50.936;4.046;2023-05-07T12:00:56;6.70;;;3.87;;
19374;SDS011;9823;50.936;4.046;2023-05-07T12:03:22;5.00;;;2.93;;
19374;SDS011;9823;50.936;4.046;2023-05-07T12:05:48;3.37;;;2.80;;
19374;SDS011;9823;50.936;4.046;2023-05-07T12:08:15;5.33;;;2.80;;
19374;SDS011;9823;50.936;4.046;2023-05-07T12:10:41;6.10;;;3.40;;
19374;SDS011;9823;50.936;4.046;2023-05-07T12:13:17;4.83;;;3.27;;
19374;SDS011;9823;50.936;4.046;2023-05-07T12:15:45;4.27;;;3.00;;
19374;SDS011;9823;50.936;4.046;2023-05-07T12:18:12;4.23;;;2.93;;
19374;SDS011;9823;50.936;4.046;2023-05-07T12:20:40;5.50;;;3.37;;
19374;SDS011;9823;50.936;4.046;2023-05-07T12:23:06;3.97;;;2.87;;
19374;SDS011;9823;50.936;4.046;2023-05-07T12:25:36;3.80;;;2.63;;
19374;SDS011;9823;50.936;4.046;2023-05-07T12:28:02;5.10;;;2.80;;
19374;SDS011;9823;50.936;4.046;2023-05-07T12:30:32;3.70;;;2.83;;
19374;SDS011;9823;50.936;4.046;2023-05-07T12:32:58;4.07;;;3.10;;
19374;SDS011;9823;50.936;4.046;2023-05-07T12:35:28;5.07;;;3.20;;
19374;SDS011;9823;50.936;4.046;2023-05-07T12:37:54;5.70;;;3.63;;
19374;SDS011;9823;50.936;4.046;2023-05-07T12:40:21;5.97;;;4.00;;
19374;SDS011;9823;50.936;4.046;2023-05-07T12:42:47;6.27;;;4.40;;
19374;SDS011;9823;50.936;4.046;2023-05-07T12:45:19;8.93;;;5.00;;
19374;SDS011;9823;50.936;4.046;2023-05-07T12:47:46;8.27;;;5.33;;
19374;SDS011;9823;50.936;4.046;2023-05-07T12:50:15;7.40;;;5.80;;
19374;SDS011;9823;50.936;4.046;2023-05-07T12:52:45;10.20;;;7.03;;
19374;SDS011;9823;50.936;4.046;2023-05-07T12:55:12;8.90;;;6.27;;
19374;SDS011;9823;50.936;4.046;2023-05-07T12:57:41;8.23;;;5.97;;
19374;SDS011;9823;50.936;4.046;2023-05-07T13:00:09;7.80;;;6.63;;
19374;SDS011;9823;50.936;4.046;2023-05-07T13:02:39;9.10;;;7.03;;
19374;SDS011;9823;50.936;4.046;2023-05-07T13:05:05;8.80;;;6.90;;
19374;SDS011;9823;50.936;4.046;2023-05-07T13:07:32;9.63;;;7.30;;
19374;SDS011;9823;50.936;4.046;2023-05-07T13:09:58;9.37;;;6.97;;
19374;SDS011;9823;50.936;4.046;2023-05-07T13:12:24;9.73;;;7.33;;
19374;SDS011;9823;50.936;4.046;2023-05-07T13:14:52;8.07;;;6.50;;
19374;SDS011;9823;50.936;4.046;2023-05-07T13:17:18;10.10;;;6.83;;
19374;SDS011;9823;50.936;4.046;2023-05-07T13:19:44;8.87;;;6.50;;
19374;SDS011;9823;50.936;4.046;2023-05-07T13:22:13;9.97;;;5.87;;
19374;SDS011;9823;50.936;4.046;2023-05-07T13:24:39;7.87;;;5.90;;
19374;SDS011;9823;50.936;4.046;2023-05-07T13:27:06;8.37;;;6.00;;
19374;SDS011;9823;50.936;4.046;2023-05-07T13:29:32;9.70;;;6.13;;
19374;SDS011;9823;50.936;4.046;2023-05-07T13:31:58;8.30;;;6.30;;
19374;SDS011;9823;50.936;4.046;2023-05-07T13:34:24;8.43;;;6.30;;
19374;SDS011;9823;50.936;4.046;2023-05-07T13:36:50;8.30;;;5.70;;
19374;SDS011;9823;50.936;4.046;2023-05-07T13:39:17;8.50;;;6.20;;
19374;SDS011;9823;50.936;4.046;2023-05-07T13:41:45;7.57;;;6.17;;
19374;SDS011;9823;50.936;4.046;2023-05-07T13:44:13;11.43;;;6.17;;
19374;SDS011;9823;50.936;4.046;2023-05-07T13:46:39;9.53;;;6.00;;
19374;SDS011;9823;50.936;4.046;2023-05-07T13:49:05;9.90;;;7.07;;
19374;SDS011;9823;50.936;4.046;2023-05-07T13:51:36;9.20;;;6.30;;
19374;SDS011;9823;50.936;4.046;2023-05-07T13:54:02;8.03;;;5.87;;
19374;SDS011;9823;50.936;4.046;2023-05-07T13:56:28;8.40;;;5.70;;
19374;SDS011;9823;50.936;4.046;2023-05-07T13:58:56;8.27;;;5.80;;
19374;SDS011;9823;50.936;4.046;2023-05-07T14:01:24;6.97;;;5.73;;
19374;SDS011;9823;50.936;4.046;2023-05-07T14:03:50;8.03;;;5.43;;
19374;SDS011;9823;50.936;4.046;2023-05-07T14:06:16;8.87;;;5.73;;
19374;SDS011;9823;50.936;4.046;2023-05-07T14:08:42;7.03;;;5.20;;
19374;SDS011;9823;50.936;4.046;2023-05-07T14:11:08;9.53;;;5.83;;
19374;SDS011;9823;50.936;4.046;2023-05-07T14:13:34;11.37;;;6.40;;
19374;SDS011;9823;50.936;4.046;2023-05-07T14:16:01;10.70;;;7.20;;
19374;SDS011;9823;50.936;4.046;2023-05-07T14:18:27;10.43;;;7.90;;
19374;SDS011;9823;50.936;4.046;2023-05-07T14:20:54;9.83;;;6.53;;
19374;SDS011;9823;50.936;4.046;2023-05-07T14:23:20;9.80;;;6.83;;
19374;SDS011;9823;50.936;4.046;2023-05-07T14:25:51;16.30;;;7.93;;
19374;SDS011;9823;50.936;4.046;2023-05-07T14:28:17;9.47;;;6.70;;
19374;SDS011;9823;50.936;4.046;2023-05-07T14:30:43;17.03;;;9.50;;
19374;SDS011;9823;50.936;4.046;2023-05-07T14:33:09;13.27;;;9.17;;
19374;SDS011;9823;50.936;4.046;2023-05-07T14:35:37;11.70;;;7.97;;
19374;SDS011;9823;50.936;4.046;2023-05-07T14:38:06;10.87;;;6.60;;
19374;SDS011;9823;50.936;4.046;2023-05-07T14:40:32;8.80;;;6.33;;
19374;SDS011;9823;50.936;4.046;2023-05-07T14:42:58;14.53;;;9.53;;
19374;SDS011;9823;50.936;4.046;2023-05-07T14:45:25;14.77;;;11.60;;
19374;SDS011;9823;50.936;4.046;2023-05-07T14:47:51;12.67;;;8.40;;
19374;SDS011;9823;50.936;4.046;2023-05-07T14:50:17;15.17;;;8.80;;
19374;SDS011;9823;50.936;4.046;2023-05-07T14:52:43;14.73;;;9.60;;
19374;SDS011;9823;50.936;4.046;2023-05-07T14:55:09;14.30;;;8.83;;
19374;SDS011;9823;50.936;4.046;2023-05-07T14:57:35;11.10;;;8.47;;
19374;SDS011;9823;50.936;4.046;2023-05-07T15:00:03;14.63;;;9.30;;
19374;SDS011;9823;50.936;4.046;2023-05-07T15:02:39;14.60;;;9.50;;